Terminal Aerodrome Forecast
Issued by NWS Bismarck, ND

Home | Current Version | Previous Version | Graphics & Text | Print | Product List | Glossary On
Versions: 1 2 3 4 5 6 7 8 9 10 11 12 13 14 15 16 17 18 19 20
000
FTUS43 KBIS 210524
TAFISN
TAF
KISN 210524Z 2106/2206 13008KT P6SM FEW200
     FM210700 14007KT P6SM FEW150 WS020/17040KT
     FM210900 15007KT P6SM SCT200
     FM211200 19007KT P6SM FEW200
     FM211600 30018G27KT P6SM SKC
     FM220200 31009KT P6SM FEW250=

USA.gov is the U.S. government's official web portal to all federal, state and local government web resources and services.